createdAt,value
2024-03-07T00:01:51.502Z,101554.80
2024-03-07T00:04:23.397Z,101554.89
2024-03-07T00:06:55.216Z,101553.76
2024-03-07T00:09:27.081Z,101560.47
2024-03-07T00:11:59.121Z,101560.78
2024-03-07T00:14:31.375Z,101551.50
2024-03-07T00:17:04.030Z,101557.70
2024-03-07T00:19:36.173Z,101558.34
2024-03-07T00:22:08.158Z,101552.14
2024-03-07T00:24:39.927Z,101554.90
2024-03-07T00:27:12.427Z,101554.42
2024-03-07T00:29:44.968Z,101552.10
2024-03-07T00:32:16.921Z,101556.79
2024-03-07T00:34:49.113Z,101559.09
2024-03-07T00:37:21.117Z,101558.95
2024-03-07T00:39:53.080Z,101555.70
2024-03-07T00:42:25.504Z,101557.46
2024-03-07T00:44:58.599Z,101555.83
2024-03-07T00:47:30.597Z,101551.09
2024-03-07T00:50:02.723Z,101551.95
2024-03-07T00:52:34.609Z,101549.33
2024-03-07T00:55:10.570Z,101550.00
2024-03-07T00:57:42.586Z,101547.55
2024-03-07T01:00:18.617Z,101549.63
2024-03-07T01:02:50.782Z,101548.52
2024-03-07T01:05:23.120Z,101551.67
2024-03-07T01:07:56.735Z,101541.61
2024-03-07T01:10:29.626Z,101542.67
2024-03-07T01:13:03.369Z,101544.40
2024-03-07T01:15:36.940Z,101544.77
2024-03-07T01:18:09.284Z,101546.61
2024-03-07T01:20:39.879Z,101545.61
2024-03-07T01:23:12.156Z,101542.36
2024-03-07T01:25:44.238Z,101548.10
2024-03-07T01:28:18.303Z,101544.28
2024-03-07T01:30:50.208Z,101544.07
2024-03-07T01:33:22.443Z,101550.70
2024-03-07T01:35:54.429Z,101550.80
2024-03-07T01:38:26.597Z,101550.43
2024-03-07T01:40:58.485Z,101548.17
2024-03-07T01:43:32.372Z,101550.79
2024-03-07T01:46:06.027Z,101549.08
2024-03-07T01:48:39.624Z,101545.61
2024-03-07T01:51:12.010Z,101548.52
2024-03-07T01:53:44.074Z,101548.30
2024-03-07T01:56:16.136Z,101547.48
2024-03-07T01:58:51.795Z,101552.02
2024-03-07T02:01:23.843Z,101556.08
2024-03-07T02:03:56.062Z,101550.45
2024-03-07T02:06:30.322Z,101549.25
2024-03-07T02:09:03.729Z,101552.99
2024-03-07T02:11:35.932Z,101548.67
2024-03-07T02:14:08.061Z,101549.55
2024-03-07T02:16:40.683Z,101556.04
2024-03-07T02:19:13.063Z,101551.55
2024-03-07T02:21:45.312Z,101554.20
2024-03-07T02:24:17.477Z,101549.36
2024-03-07T02:26:49.331Z,101551.30
2024-03-07T02:29:21.724Z,101553.95
2024-03-07T02:31:53.705Z,101555.28
2024-03-07T02:34:28.195Z,101550.44
2024-03-07T02:37:00.348Z,101549.98
2024-03-07T02:39:32.262Z,101548.73
2024-03-07T02:42:04.288Z,101552.08
2024-03-07T02:44:36.224Z,101552.73
2024-03-07T02:47:08.857Z,101553.83
2024-03-07T02:49:39.162Z,101555.78
2024-03-07T02:52:11.653Z,101556.23
2024-03-07T02:54:43.838Z,101557.22
2024-03-07T02:57:15.740Z,101554.58
2024-03-07T02:59:47.922Z,101556.14
2024-03-07T03:02:19.961Z,101553.31
2024-03-07T03:04:52.211Z,101554.65
2024-03-07T03:07:24.747Z,101549.27
2024-03-07T03:09:56.595Z,101552.48
2024-03-07T03:12:28.396Z,101554.67
2024-03-07T03:15:00.304Z,101555.80
2024-03-07T03:17:33.451Z,101559.80
2024-03-07T03:20:16.080Z,101555.70
2024-03-07T03:25:24.397Z,101558.75
2024-03-07T03:27:56.453Z,101559.66
2024-03-07T03:30:28.427Z,101560.13
2024-03-07T03:33:00.766Z,101563.40
2024-03-07T03:35:32.806Z,101562.12
2024-03-07T03:38:05.331Z,101560.94
2024-03-07T03:40:38.055Z,101559.65
2024-03-07T03:43:10.061Z,101561.81
2024-03-07T03:45:41.926Z,101560.92
2024-03-07T03:48:14.615Z,101560.89
2024-03-07T03:50:48.022Z,101557.12
2024-03-07T03:53:20.034Z,101555.90
2024-03-07T03:55:52.194Z,101557.04
2024-03-07T03:58:24.196Z,101554.46
2024-03-07T04:00:56.336Z,101557.36
2024-03-07T04:03:28.751Z,101556.11
2024-03-07T04:06:00.817Z,101558.70
2024-03-07T04:08:33.121Z,101557.17
2024-03-07T04:11:06.459Z,101556.85
2024-03-07T04:13:38.530Z,101557.01
2024-03-07T04:16:10.787Z,101557.83
2024-03-07T04:18:44.123Z,101555.95
2024-03-07T04:21:17.098Z,101555.72
2024-03-07T04:23:49.094Z,101558.27
2024-03-07T04:26:21.498Z,101555.54
2024-03-07T04:28:53.310Z,101555.77
2024-03-07T04:31:25.287Z,101555.36
2024-03-07T04:33:57.846Z,101558.27
2024-03-07T04:36:30.987Z,101555.94
2024-03-07T04:39:05.621Z,101556.86
2024-03-07T04:41:37.961Z,101558.16
2024-03-07T04:44:09.819Z,101554.38
2024-03-07T04:46:45.323Z,101556.66
2024-03-07T04:49:17.306Z,101553.80
2024-03-07T04:51:49.248Z,101553.86
2024-03-07T04:54:21.388Z,101549.27
2024-03-07T04:56:54.621Z,101548.85
2024-03-07T04:59:26.884Z,101554.86
2024-03-07T05:01:59.273Z,101556.27
2024-03-07T05:04:31.731Z,101551.46
2024-03-07T05:07:04.350Z,101552.53
2024-03-07T05:09:35.063Z,101555.64
2024-03-07T05:12:07.649Z,101555.82
2024-03-07T05:14:38.060Z,101555.48
2024-03-07T05:17:10.605Z,101553.54
2024-03-07T05:19:43.082Z,101554.48
2024-03-07T05:22:17.168Z,101551.55
2024-03-07T05:24:51.364Z,101558.10
2024-03-07T05:27:23.303Z,101559.13
2024-03-07T05:29:56.624Z,101560.35
2024-03-07T05:32:30.089Z,101563.14
2024-03-07T05:35:02.304Z,101567.39
2024-03-07T05:37:34.094Z,101571.69
2024-03-07T05:40:08.842Z,101573.90
2024-03-07T05:42:40.803Z,101577.09
2024-03-07T05:45:16.016Z,101582.67
2024-03-07T05:47:48.657Z,101583.73
2024-03-07T05:50:21.180Z,101584.46
2024-03-07T05:52:53.322Z,101589.94
2024-03-07T05:55:25.341Z,101590.09
2024-03-07T05:57:57.487Z,101591.45
2024-03-07T06:00:29.683Z,101592.48
2024-03-07T06:03:01.938Z,101591.11
2024-03-07T06:05:34.015Z,101592.79
2024-03-07T06:08:08.076Z,101593.77
2024-03-07T06:10:42.328Z,101596.01
2024-03-07T06:13:16.530Z,101597.02
2024-03-07T06:15:49.854Z,101604.25
2024-03-07T06:18:22.035Z,101602.75
2024-03-07T06:20:53.993Z,101603.69
2024-03-07T06:23:25.935Z,101604.85
2024-03-07T06:25:59.778Z,101605.57
2024-03-07T06:28:31.973Z,101606.15
2024-03-07T06:31:08.737Z,101608.60
2024-03-07T06:33:40.964Z,101613.00
2024-03-07T06:36:13.108Z,101614.69
2024-03-07T06:38:45.065Z,101619.59
2024-03-07T06:41:17.279Z,101615.80
2024-03-07T06:43:50.782Z,101618.39
2024-03-07T06:46:23.195Z,101620.45
2024-03-07T06:48:55.153Z,101625.16
2024-03-07T06:51:27.259Z,101623.59
2024-03-07T06:53:59.975Z,101625.61
2024-03-07T06:56:32.390Z,101629.63
2024-03-07T06:59:05.779Z,101633.30
2024-03-07T07:01:38.574Z,101634.42
2024-03-07T07:04:10.014Z,101636.89
2024-03-07T07:06:44.000Z,101640.45
2024-03-07T07:09:20.170Z,101633.16
2024-03-07T07:11:52.496Z,101640.80
2024-03-07T07:14:24.984Z,101640.50
2024-03-07T07:16:57.553Z,101638.52
2024-03-07T07:19:29.554Z,101640.85
2024-03-07T07:22:01.464Z,101645.66
2024-03-07T07:24:35.775Z,101640.79
2024-03-07T07:27:09.331Z,101643.13
2024-03-07T07:29:41.509Z,101643.30
2024-03-07T07:32:13.844Z,101644.02
2024-03-07T07:34:45.389Z,101644.32
2024-03-07T07:37:17.508Z,101642.88
2024-03-07T07:39:49.345Z,101641.31
2024-03-07T07:42:21.384Z,101643.14
2024-03-07T07:44:53.392Z,101639.14
2024-03-07T07:47:25.743Z,101642.39
2024-03-07T07:49:57.692Z,101644.51
2024-03-07T07:52:30.748Z,101641.75
2024-03-07T07:55:02.916Z,101643.16
2024-03-07T07:57:34.842Z,101641.98
2024-03-07T08:00:10.345Z,101642.88
2024-03-07T08:02:44.941Z,101642.21
2024-03-07T08:05:19.111Z,101642.52
2024-03-07T08:07:51.852Z,101642.67
2024-03-07T08:10:24.326Z,101644.26
2024-03-07T08:12:56.301Z,101642.40
2024-03-07T08:15:29.609Z,101643.11
2024-03-07T08:18:02.712Z,101644.30
2024-03-07T08:20:34.872Z,101642.59
2024-03-07T08:23:07.838Z,101645.42
2024-03-07T08:25:40.510Z,101646.53
2024-03-07T08:28:13.015Z,101645.28
2024-03-07T08:30:45.714Z,101647.98
2024-03-07T08:33:17.736Z,101648.41
2024-03-07T08:35:51.042Z,101651.77
2024-03-07T08:38:22.960Z,101646.44
2024-03-07T08:40:55.739Z,101646.95
2024-03-07T08:43:28.094Z,101646.70
2024-03-07T08:46:00.407Z,101647.80
2024-03-07T08:48:32.369Z,101653.21
2024-03-07T08:51:04.550Z,101650.30
2024-03-07T08:53:37.393Z,101653.17
2024-03-07T08:56:09.769Z,101648.39
2024-03-07T08:58:41.734Z,101653.59
2024-03-07T09:01:13.721Z,101650.83
2024-03-07T09:03:45.573Z,101651.27
2024-03-07T09:06:17.482Z,101651.29
2024-03-07T09:08:49.376Z,101650.16
2024-03-07T09:11:23.519Z,101653.20
2024-03-07T09:13:55.499Z,101657.91
2024-03-07T09:16:27.922Z,101648.27
2024-03-07T09:18:59.809Z,101647.41
2024-03-07T09:21:31.808Z,101645.32
2024-03-07T09:24:04.169Z,101643.80
2024-03-07T09:26:36.941Z,101647.58
2024-03-07T09:29:07.838Z,101648.37
2024-03-07T09:31:41.515Z,101642.95
2024-03-07T09:34:14.145Z,101641.35
2024-03-07T09:36:44.520Z,101636.27
2024-03-07T09:39:16.863Z,101636.16
2024-03-07T09:41:48.880Z,101637.39
2024-03-07T09:44:28.138Z,101637.59
2024-03-07T09:47:06.078Z,101639.38
2024-03-07T09:49:37.941Z,101644.15
2024-03-07T09:52:12.799Z,101637.20
2024-03-07T09:54:45.316Z,101644.20
2024-03-07T09:57:18.369Z,101643.26
2024-03-07T09:59:51.297Z,101635.89
2024-03-07T10:02:24.750Z,101638.34
2024-03-07T10:04:58.324Z,101638.95
2024-03-07T10:07:30.508Z,101634.59
2024-03-07T10:10:11.021Z,101633.81
2024-03-07T10:12:43.340Z,101634.06
2024-03-07T10:15:18.561Z,101632.90
2024-03-07T10:17:51.309Z,101625.98
2024-03-07T10:20:23.922Z,101626.88
2024-03-07T10:22:56.658Z,101624.81
2024-03-07T10:25:30.236Z,101623.68
2024-03-07T10:28:05.367Z,101620.15
2024-03-07T10:30:45.627Z,101620.81
2024-03-07T10:33:17.799Z,101618.67
2024-03-07T10:35:51.754Z,101621.56
2024-03-07T10:38:23.755Z,101618.40
2024-03-07T10:40:57.504Z,101623.94
2024-03-07T10:43:31.769Z,101620.58
2024-03-07T10:46:10.717Z,101620.80
2024-03-07T10:48:44.964Z,101619.70
2024-03-07T10:51:28.379Z,101617.71
2024-03-07T10:54:09.127Z,101616.19
2024-03-07T10:56:55.367Z,101613.36
2024-03-07T10:59:29.517Z,101616.48
2024-03-07T11:02:13.596Z,101618.28
2024-03-07T11:04:46.424Z,101608.06
2024-03-07T11:07:19.260Z,101606.82
2024-03-07T11:09:53.074Z,101611.48
2024-03-07T11:12:29.745Z,101607.38
2024-03-07T11:15:02.104Z,101604.50
2024-03-07T11:17:35.322Z,101600.55
2024-03-07T11:20:27.095Z,101603.79
2024-03-07T11:22:59.085Z,101600.08
2024-03-07T11:25:31.785Z,101599.56
2024-03-07T11:28:04.429Z,101594.52
2024-03-07T11:30:36.424Z,101594.52
2024-03-07T11:33:13.278Z,101591.80
2024-03-07T11:35:54.056Z,101591.98
2024-03-07T11:38:35.487Z,101584.80
2024-03-07T11:41:09.751Z,101583.73
2024-03-07T11:43:43.309Z,101580.27
2024-03-07T11:46:18.407Z,101578.67
2024-03-07T11:48:50.748Z,101575.09
2024-03-07T11:51:26.304Z,101576.33
2024-03-07T11:53:59.780Z,101572.72
2024-03-07T11:56:32.041Z,101572.90
2024-03-07T11:59:05.638Z,101563.34
2024-03-07T12:01:38.910Z,101570.00
2024-03-07T12:04:16.992Z,101566.21
2024-03-07T12:06:55.443Z,101566.75
2024-03-07T12:09:27.646Z,101567.13
2024-03-07T12:12:00.680Z,101562.61
2024-03-07T12:14:35.203Z,101555.56
2024-03-07T12:17:07.676Z,101554.48
2024-03-07T12:19:40.128Z,101556.61
2024-03-07T12:22:14.105Z,101554.27
2024-03-07T12:24:48.095Z,101552.84
2024-03-07T12:27:21.433Z,101548.15
2024-03-07T12:32:27.792Z,101547.08
2024-03-07T12:35:00.153Z,101544.16
2024-03-07T12:37:36.909Z,101542.38
2024-03-07T12:40:20.233Z,101540.20
2024-03-07T12:42:55.331Z,101536.02
2024-03-07T12:45:29.574Z,101535.60
2024-03-07T12:48:06.051Z,101532.93
2024-03-07T12:50:39.855Z,101535.46
2024-03-07T12:53:13.159Z,101532.02
2024-03-07T12:55:45.839Z,101532.90
2024-03-07T12:58:16.772Z,101533.63
2024-03-07T13:00:48.764Z,101530.55
2024-03-07T13:03:20.946Z,101523.73
2024-03-07T13:05:53.013Z,101525.33
2024-03-07T13:08:27.820Z,101528.06
2024-03-07T13:11:01.706Z,101524.44
2024-03-07T13:13:35.235Z,101520.63
2024-03-07T13:16:07.971Z,101517.75
2024-03-07T13:18:40.276Z,101519.23
2024-03-07T13:21:13.105Z,101523.35
2024-03-07T13:23:45.284Z,101519.95
2024-03-07T13:26:25.681Z,101521.75
2024-03-07T13:29:01.670Z,101514.20
2024-03-07T13:31:34.686Z,101507.35
2024-03-07T13:34:14.248Z,101513.63
2024-03-07T13:36:47.327Z,101511.45
2024-03-07T13:39:20.062Z,101509.48
2024-03-07T13:41:53.354Z,101507.65
2024-03-07T13:44:26.330Z,101504.95
2024-03-07T13:47:01.082Z,101507.83
2024-03-07T13:49:35.320Z,101510.86
2024-03-07T13:52:19.660Z,101509.82
2024-03-07T13:54:55.975Z,101504.93
2024-03-07T13:57:41.472Z,101504.04
2024-03-07T14:00:35.907Z,101503.56
2024-03-07T14:03:41.359Z,101496.31
2024-03-07T14:06:23.656Z,101498.48
2024-03-07T14:09:40.769Z,101496.86
2024-03-07T14:12:47.396Z,101498.85
2024-03-07T14:15:59.309Z,101502.45
2024-03-07T14:19:05.272Z,101498.30
2024-03-07T14:22:05.779Z,101498.48
2024-03-07T14:25:07.883Z,101495.59
2024-03-07T14:27:50.423Z,101499.23
2024-03-07T14:30:41.756Z,101498.85
2024-03-07T14:33:18.393Z,101497.42
2024-03-07T14:36:07.614Z,101500.89
2024-03-07T14:38:53.763Z,101498.04
2024-03-07T14:41:42.776Z,101499.10
2024-03-07T14:44:16.932Z,101494.40
2024-03-07T14:46:55.182Z,101489.34
2024-03-07T14:49:27.529Z,101488.13
2024-03-07T14:52:01.423Z,101487.04
2024-03-07T14:54:34.291Z,101483.23
2024-03-07T14:57:08.757Z,101483.05
2024-03-07T14:59:42.096Z,101484.52
2024-03-07T15:02:16.494Z,101480.20
2024-03-07T15:04:48.514Z,101479.46
2024-03-07T15:07:23.466Z,101474.08
2024-03-07T15:09:58.842Z,101475.52
2024-03-07T15:12:30.761Z,101473.37
2024-03-07T15:15:10.976Z,101472.84
2024-03-07T15:17:46.693Z,101473.39
2024-03-07T15:20:24.392Z,101472.14
2024-03-07T15:22:58.361Z,101468.70
2024-03-07T15:25:31.169Z,101471.05
2024-03-07T15:28:02.668Z,101469.98
2024-03-07T15:30:36.356Z,101464.03
2024-03-07T15:33:09.145Z,101462.77
2024-03-07T15:35:41.263Z,101461.15
2024-03-07T15:38:15.202Z,101460.41
2024-03-07T15:40:47.133Z,101465.98
2024-03-07T15:43:20.169Z,101464.73
2024-03-07T15:45:53.533Z,101459.52
2024-03-07T15:48:26.184Z,101464.18
2024-03-07T15:50:58.808Z,101465.27
2024-03-07T15:53:30.929Z,101448.67
2024-03-07T15:56:03.036Z,101463.79
2024-03-07T15:58:35.006Z,101463.43
2024-03-07T16:01:07.586Z,101467.93
2024-03-07T16:03:40.203Z,101466.81
2024-03-07T16:06:12.208Z,101464.28
2024-03-07T16:08:45.372Z,101464.98
2024-03-07T16:11:25.451Z,101461.00
2024-03-07T16:13:57.551Z,101460.27
2024-03-07T16:16:29.395Z,101458.99
2024-03-07T16:19:01.445Z,101460.06
2024-03-07T16:21:33.501Z,101460.77
2024-03-07T16:24:07.369Z,101457.33
2024-03-07T16:26:39.347Z,101462.50
2024-03-07T16:29:12.723Z,101466.11
2024-03-07T16:31:45.665Z,101462.30
2024-03-07T16:34:18.539Z,101462.46
2024-03-07T16:36:53.481Z,101463.66
2024-03-07T16:39:26.230Z,101465.98
2024-03-07T16:41:56.964Z,101464.13
2024-03-07T16:44:29.316Z,101459.63
2024-03-07T16:47:02.781Z,101455.45
2024-03-07T16:49:36.147Z,101459.92
2024-03-07T16:52:10.276Z,101460.45
2024-03-07T16:54:43.165Z,101457.90
2024-03-07T16:57:16.326Z,101460.73
2024-03-07T16:59:51.510Z,101463.09
2024-03-07T17:02:27.592Z,101458.23
2024-03-07T17:05:00.395Z,101460.44
2024-03-07T17:07:32.534Z,101459.17
2024-03-07T17:10:07.401Z,101460.02
2024-03-07T17:12:39.805Z,101458.56
2024-03-07T17:15:15.704Z,101460.30
2024-03-07T17:17:50.031Z,101462.13
2024-03-07T17:20:25.783Z,101464.26
2024-03-07T17:22:59.954Z,101468.05
2024-03-07T17:25:32.481Z,101468.89
2024-03-07T17:28:04.912Z,101468.46
2024-03-07T17:30:37.446Z,101468.83
2024-03-07T17:33:10.002Z,101471.83
2024-03-07T17:35:43.846Z,101469.41
2024-03-07T17:38:16.218Z,101465.41
2024-03-07T17:40:48.189Z,101472.23
2024-03-07T17:43:20.063Z,101470.30
2024-03-07T17:45:51.925Z,101468.81
2024-03-07T17:48:26.825Z,101472.60
2024-03-07T17:51:03.062Z,101473.52
2024-03-07T17:53:35.113Z,101470.44
2024-03-07T17:56:07.619Z,101472.00
2024-03-07T17:58:39.605Z,101475.03
2024-03-07T18:01:15.654Z,101474.48
2024-03-07T18:03:48.307Z,101470.05
2024-03-07T18:06:23.226Z,101471.11
2024-03-07T18:09:00.601Z,101477.59
2024-03-07T18:11:34.250Z,101476.48
2024-03-07T18:14:06.684Z,101477.85
2024-03-07T18:16:38.753Z,101471.11
2024-03-07T18:19:11.209Z,101476.54
2024-03-07T18:21:43.167Z,101473.97
2024-03-07T18:24:16.018Z,101472.13
2024-03-07T18:26:48.647Z,101469.46
2024-03-07T18:29:21.421Z,101468.89
2024-03-07T18:31:55.020Z,101474.85
2024-03-07T18:34:26.913Z,101473.60
2024-03-07T18:37:03.979Z,101472.13
2024-03-07T18:39:37.294Z,101469.05
2024-03-07T18:42:09.357Z,101465.93
2024-03-07T18:44:41.763Z,101466.77
2024-03-07T18:47:19.207Z,101469.52
2024-03-07T18:49:52.120Z,101468.77
2024-03-07T18:52:24.637Z,101471.48
2024-03-07T18:54:57.942Z,101472.88
2024-03-07T18:57:29.943Z,101472.09
2024-03-07T19:00:05.710Z,101472.10
2024-03-07T19:02:37.732Z,101469.14
2024-03-07T19:05:13.705Z,101470.01
2024-03-07T19:07:46.698Z,101469.34
2024-03-07T19:10:19.475Z,101467.77
2024-03-07T19:12:49.817Z,101470.92
2024-03-07T19:15:44.142Z,101472.19
2024-03-07T19:18:17.691Z,101472.59
2024-03-07T19:20:50.857Z,101472.75
2024-03-07T19:23:22.781Z,101476.55
2024-03-07T19:25:56.300Z,101480.50
2024-03-07T19:28:29.299Z,101478.90
2024-03-07T19:31:01.632Z,101479.37
2024-03-07T19:33:35.338Z,101482.33
2024-03-07T19:36:14.599Z,101481.88
2024-03-07T19:38:50.259Z,101474.92
2024-03-07T19:41:24.311Z,101484.54
2024-03-07T19:43:56.368Z,101484.28
2024-03-07T19:46:29.327Z,101483.70
2024-03-07T19:49:02.098Z,101485.35
2024-03-07T19:51:34.485Z,101475.92
2024-03-07T19:54:10.224Z,101482.27
2024-03-07T19:56:42.988Z,101478.09
2024-03-07T19:59:14.809Z,101478.62
2024-03-07T20:01:47.430Z,101472.20
2024-03-07T20:04:17.866Z,101471.35
2024-03-07T20:06:49.780Z,101471.09
2024-03-07T20:09:22.064Z,101474.36
2024-03-07T20:11:55.397Z,101472.52
2024-03-07T20:14:27.562Z,101474.31
2024-03-07T20:16:59.550Z,101474.73
2024-03-07T20:19:31.636Z,101471.98
2024-03-07T20:22:03.544Z,101472.09
2024-03-07T20:24:36.297Z,101469.98
2024-03-07T20:27:06.806Z,101469.91
2024-03-07T20:29:39.777Z,101470.75
2024-03-07T20:32:11.820Z,101468.48
2024-03-07T20:34:43.802Z,101470.14
2024-03-07T20:37:15.747Z,101470.06
2024-03-07T20:39:58.103Z,101469.31
2024-03-07T20:42:38.659Z,101469.21
2024-03-07T20:45:12.644Z,101469.66
2024-03-07T20:47:46.434Z,101461.78
2024-03-07T20:50:21.316Z,101464.13
2024-03-07T20:52:54.557Z,101467.15
2024-03-07T20:55:28.336Z,101467.23
2024-03-07T20:58:02.452Z,101465.98
2024-03-07T21:00:34.673Z,101464.09
2024-03-07T21:03:07.864Z,101463.57
2024-03-07T21:05:43.606Z,101460.38
2024-03-07T21:08:17.244Z,101459.85
2024-03-07T21:10:49.626Z,101462.11
2024-03-07T21:13:22.469Z,101461.13
2024-03-07T21:15:53.024Z,101466.30
2024-03-07T21:18:26.290Z,101467.14
2024-03-07T21:20:58.590Z,101461.92
2024-03-07T21:23:30.637Z,101459.58
2024-03-07T21:26:02.784Z,101462.11
2024-03-07T21:28:34.627Z,101462.11
2024-03-07T21:31:07.414Z,101460.55
2024-03-07T21:33:40.499Z,101456.49
2024-03-07T21:36:13.061Z,101455.98
2024-03-07T21:38:45.414Z,101455.44
2024-03-07T21:41:17.342Z,101453.40
2024-03-07T21:43:49.179Z,101453.98
2024-03-07T21:46:22.139Z,101451.18
2024-03-07T21:48:57.204Z,101451.63
2024-03-07T21:51:31.919Z,101452.90
2024-03-07T21:54:05.073Z,101452.83
2024-03-07T21:56:37.044Z,101452.88
2024-03-07T21:59:10.174Z,101449.29
2024-03-07T22:01:45.069Z,101450.08
2024-03-07T22:04:16.860Z,101449.02
2024-03-07T22:06:48.640Z,101449.55
2024-03-07T22:09:20.560Z,101449.29
2024-03-07T22:11:52.773Z,101447.95
2024-03-07T22:14:24.729Z,101447.48
2024-03-07T22:16:57.547Z,101449.65
2024-03-07T22:19:29.449Z,101453.50
2024-03-07T22:22:01.350Z,101452.05
2024-03-07T22:24:33.366Z,101453.44
2024-03-07T22:27:06.081Z,101444.43
2024-03-07T22:29:38.204Z,101447.85
2024-03-07T22:32:10.155Z,101446.45
2024-03-07T22:34:43.799Z,101441.81
2024-03-07T22:37:16.956Z,101435.48
2024-03-07T22:39:49.919Z,101439.79
2024-03-07T22:42:21.721Z,101433.80
2024-03-07T22:44:53.701Z,101430.10
2024-03-07T22:47:26.416Z,101431.10
2024-03-07T22:50:05.482Z,101431.58
2024-03-07T22:52:45.391Z,101434.46
2024-03-07T22:55:18.452Z,101431.95
2024-03-07T22:57:50.232Z,101431.46
2024-03-07T23:00:25.527Z,101436.05
2024-03-07T23:02:59.900Z,101433.33
2024-03-07T23:05:33.351Z,101428.53
2024-03-07T23:08:05.443Z,101427.67
2024-03-07T23:10:37.517Z,101420.95
2024-03-07T23:13:09.467Z,101418.80
2024-03-07T23:15:41.464Z,101414.18
2024-03-07T23:18:13.428Z,101407.67
2024-03-07T23:20:47.294Z,101409.20
2024-03-07T23:23:19.137Z,101408.67
2024-03-07T23:25:51.066Z,101410.00
2024-03-07T23:28:23.097Z,101411.09
2024-03-07T23:30:55.011Z,101403.36
2024-03-07T23:33:27.972Z,101405.23
2024-03-07T23:36:01.735Z,101405.77
2024-03-07T23:38:33.935Z,101406.91
2024-03-07T23:41:06.851Z,101405.29
2024-03-07T23:43:39.007Z,101404.05
2024-03-07T23:46:13.890Z,101405.48
2024-03-07T23:48:45.844Z,101403.00
2024-03-07T23:51:19.703Z,101396.85
2024-03-07T23:53:52.832Z,101396.52
2024-03-07T23:56:24.675Z,101397.38
2024-03-07T23:58:56.846Z,101394.77
